sensor_id;sensor_type;location;lat;lon;timestamp;pressure;altitude;pressure_sealevel;temperature;humidity
41140;BME280;26881;48.784;9.192;2023-03-14T00:03:44;96970.47;;;11.18;97.69
41140;BME280;26881;48.784;9.192;2023-03-14T00:09:07;96952.72;;;11.22;98.15
41140;BME280;26881;48.784;9.192;2023-03-14T00:14:29;96966.94;;;11.29;97.87
41140;BME280;26881;48.784;9.192;2023-03-14T00:19:52;96964.31;;;11.29;96.74
41140;BME280;26881;48.784;9.192;2023-03-14T00:25:15;96941.97;;;11.15;98.41
41140;BME280;26881;48.784;9.192;2023-03-14T00:30:37;96925.59;;;11.23;97.95
41140;BME280;26881;48.784;9.192;2023-03-14T00:36:01;96947.78;;;11.28;96.62
41140;BME280;26881;48.784;9.192;2023-03-14T00:41:23;96958.06;;;11.20;97.53
41140;BME280;26881;48.784;9.192;2023-03-14T00:46:45;96958.59;;;11.14;99.54
41140;BME280;26881;48.784;9.192;2023-03-14T00:52:07;96941.66;;;11.08;99.62
41140;BME280;26881;48.784;9.192;2023-03-14T00:57:29;96959.13;;;10.98;100.00
41140;BME280;26881;48.784;9.192;2023-03-14T01:02:51;96966.00;;;10.99;100.00
41140;BME280;26881;48.784;9.192;2023-03-14T01:08:14;96974.53;;;10.91;100.00
41140;BME280;26881;48.784;9.192;2023-03-14T01:13:36;96990.34;;;10.90;100.00
41140;BME280;26881;48.784;9.192;2023-03-14T01:18:58;96984.75;;;11.04;100.00
41140;BME280;26881;48.784;9.192;2023-03-14T01:24:20;96968.63;;;10.99;100.00
41140;BME280;26881;48.784;9.192;2023-03-14T01:29:42;96946.16;;;10.87;100.00
41140;BME280;26881;48.784;9.192;2023-03-14T01:35:04;96931.56;;;10.84;100.00
41140;BME280;26881;48.784;9.192;2023-03-14T01:40:25;96920.50;;;10.81;100.00
41140;BME280;26881;48.784;9.192;2023-03-14T01:57:19;96877.06;;;10.89;98.92
41140;BME280;26881;48.784;9.192;2023-03-14T02:02:45;96874.84;;;10.94;98.27
41140;BME280;26881;48.784;9.192;2023-03-14T02:08:10;96873.63;;;10.99;96.63
41140;BME280;26881;48.784;9.192;2023-03-14T02:13:33;96870.75;;;11.02;93.61
41140;BME280;26881;48.784;9.192;2023-03-14T02:18:54;96876.78;;;10.92;96.02
41140;BME280;26881;48.784;9.192;2023-03-14T02:24:40;96871.69;;;10.91;96.56
41140;BME280;26881;48.784;9.192;2023-03-14T02:35:33;96834.22;;;10.81;96.32
41140;BME280;26881;48.784;9.192;2023-03-14T02:40:56;96834.94;;;10.92;95.71
41140;BME280;26881;48.784;9.192;2023-03-14T02:46:20;96827.78;;;10.94;95.58
41140;BME280;26881;48.784;9.192;2023-03-14T02:51:44;96811.25;;;11.04;93.82
41140;BME280;26881;48.784;9.192;2023-03-14T02:57:07;96792.81;;;11.05;93.15
41140;BME280;26881;48.784;9.192;2023-03-14T03:02:28;96793.94;;;11.03;92.95
41140;BME280;26881;48.784;9.192;2023-03-14T03:07:50;96766.66;;;11.05;92.32
41140;BME280;26881;48.784;9.192;2023-03-14T03:13:12;96771.19;;;11.13;90.03
41140;BME280;26881;48.784;9.192;2023-03-14T03:18:34;96743.94;;;11.06;89.17
41140;BME280;26881;48.784;9.192;2023-03-14T03:23:56;96736.63;;;11.00;87.67
41140;BME280;26881;48.784;9.192;2023-03-14T03:29:19;96744.91;;;10.95;87.32
41140;BME280;26881;48.784;9.192;2023-03-14T03:34:41;96741.44;;;11.04;85.93
41140;BME280;26881;48.784;9.192;2023-03-14T03:40:03;96735.53;;;11.02;84.69
41140;BME280;26881;48.784;9.192;2023-03-14T03:45:28;96724.78;;;10.95;85.84
41140;BME280;26881;48.784;9.192;2023-03-14T03:50:50;96714.75;;;11.01;83.45
41140;BME280;26881;48.784;9.192;2023-03-14T03:56:12;96720.69;;;11.03;83.05
41140;BME280;26881;48.784;9.192;2023-03-14T04:01:33;96713.25;;;10.98;82.80
41140;BME280;26881;48.784;9.192;2023-03-14T04:06:55;96725.91;;;10.93;82.42
41140;BME280;26881;48.784;9.192;2023-03-14T04:12:17;96707.03;;;10.99;80.61
41140;BME280;26881;48.784;9.192;2023-03-14T04:17:39;96702.78;;;10.98;79.80
41140;BME280;26881;48.784;9.192;2023-03-14T04:23:01;96707.59;;;11.03;78.39
41140;BME280;26881;48.784;9.192;2023-03-14T04:28:22;96720.00;;;10.91;77.78
41140;BME280;26881;48.784;9.192;2023-03-14T04:33:45;96722.47;;;10.83;77.16
41140;BME280;26881;48.784;9.192;2023-03-14T04:39:07;96703.34;;;10.82;78.24
41140;BME280;26881;48.784;9.192;2023-03-14T04:44:29;96693.00;;;10.81;77.80
41140;BME280;26881;48.784;9.192;2023-03-14T04:49:51;96712.56;;;10.86;76.96
41140;BME280;26881;48.784;9.192;2023-03-14T04:55:13;96691.50;;;10.68;77.98
41140;BME280;26881;48.784;9.192;2023-03-14T05:00:34;96683.78;;;10.57;80.49
41140;BME280;26881;48.784;9.192;2023-03-14T05:05:59;96686.69;;;10.54;78.61
41140;BME280;26881;48.784;9.192;2023-03-14T05:11:22;96682.81;;;10.58;77.76
41140;BME280;26881;48.784;9.192;2023-03-14T05:16:44;96681.59;;;10.52;77.26
41140;BME280;26881;48.784;9.192;2023-03-14T05:22:06;96685.59;;;10.47;78.48
41140;BME280;26881;48.784;9.192;2023-03-14T05:27:28;96675.94;;;10.38;78.94
41140;BME280;26881;48.784;9.192;2023-03-14T05:32:49;96678.00;;;10.44;78.23
41140;BME280;26881;48.784;9.192;2023-03-14T05:38:11;96663.81;;;10.37;78.88
41140;BME280;26881;48.784;9.192;2023-03-14T05:43:33;96647.91;;;10.40;78.34
41140;BME280;26881;48.784;9.192;2023-03-14T05:48:55;96648.44;;;10.43;75.87
41140;BME280;26881;48.784;9.192;2023-03-14T05:54:17;96658.34;;;10.40;77.15
41140;BME280;26881;48.784;9.192;2023-03-14T05:59:38;96650.50;;;10.40;79.33
41140;BME280;26881;48.784;9.192;2023-03-14T06:05:00;96651.44;;;10.39;77.68
41140;BME280;26881;48.784;9.192;2023-03-14T06:10:22;96651.88;;;10.44;78.01
41140;BME280;26881;48.784;9.192;2023-03-14T06:15:44;96663.97;;;10.35;78.03
41140;BME280;26881;48.784;9.192;2023-03-14T06:21:06;96665.50;;;10.38;76.78
41140;BME280;26881;48.784;9.192;2023-03-14T06:26:28;96659.00;;;10.42;77.56
41140;BME280;26881;48.784;9.192;2023-03-14T06:31:50;96670.16;;;10.34;79.01
41140;BME280;26881;48.784;9.192;2023-03-14T06:37:12;96666.44;;;10.37;76.21
41140;BME280;26881;48.784;9.192;2023-03-14T06:42:33;96659.56;;;10.36;77.53
41140;BME280;26881;48.784;9.192;2023-03-14T06:47:55;96641.00;;;10.39;77.59
41140;BME280;26881;48.784;9.192;2023-03-14T06:53:17;96647.59;;;10.33;76.07
41140;BME280;26881;48.784;9.192;2023-03-14T06:58:39;96647.59;;;10.33;78.25
41140;BME280;26881;48.784;9.192;2023-03-14T07:04:01;96654.19;;;10.37;79.04
41140;BME280;26881;48.784;9.192;2023-03-14T07:09:23;96648.84;;;10.58;78.04
41140;BME280;26881;48.784;9.192;2023-03-14T07:14:45;96648.59;;;10.61;79.21
41140;BME280;26881;48.784;9.192;2023-03-14T07:20:07;96658.75;;;10.64;77.77
41140;BME280;26881;48.784;9.192;2023-03-14T07:25:31;96659.31;;;10.78;76.10
41140;BME280;26881;48.784;9.192;2023-03-14T07:30:54;96658.06;;;10.91;74.55
41140;BME280;26881;48.784;9.192;2023-03-14T07:36:17;96654.44;;;11.02;73.04
41140;BME280;26881;48.784;9.192;2023-03-14T07:41:38;96671.09;;;11.11;72.72
41140;BME280;26881;48.784;9.192;2023-03-14T07:47:00;96672.03;;;11.20;72.63
41140;BME280;26881;48.784;9.192;2023-03-14T07:52:23;96672.16;;;11.28;71.09
41140;BME280;26881;48.784;9.192;2023-03-14T07:57:47;96659.50;;;11.33;71.37
41140;BME280;26881;48.784;9.192;2023-03-14T08:03:08;96665.13;;;11.38;70.29
41140;BME280;26881;48.784;9.192;2023-03-14T08:08:30;96661.13;;;11.34;70.52
41140;BME280;26881;48.784;9.192;2023-03-14T08:13:52;96652.06;;;11.28;72.90
41140;BME280;26881;48.784;9.192;2023-03-14T08:19:14;96657.09;;;11.39;71.23
41140;BME280;26881;48.784;9.192;2023-03-14T08:24:35;96647.97;;;11.53;70.16
41140;BME280;26881;48.784;9.192;2023-03-14T08:29:57;96641.59;;;11.66;67.70
41140;BME280;26881;48.784;9.192;2023-03-14T08:35:19;96633.00;;;11.73;68.46
41140;BME280;26881;48.784;9.192;2023-03-14T08:40:41;96622.34;;;11.85;66.89
41140;BME280;26881;48.784;9.192;2023-03-14T08:46:03;96622.78;;;12.08;65.38
41140;BME280;26881;48.784;9.192;2023-03-14T08:51:25;96643.81;;;12.16;64.30
41140;BME280;26881;48.784;9.192;2023-03-14T08:56:46;96634.16;;;12.16;63.83
41140;BME280;26881;48.784;9.192;2023-03-14T09:02:11;96663.16;;;12.15;63.34
41140;BME280;26881;48.784;9.192;2023-03-14T09:07:34;96671.06;;;12.23;63.74
41140;BME280;26881;48.784;9.192;2023-03-14T09:12:56;96680.59;;;12.24;64.62
41140;BME280;26881;48.784;9.192;2023-03-14T09:18:19;96682.63;;;12.30;64.63
41140;BME280;26881;48.784;9.192;2023-03-14T09:23:41;96707.34;;;12.28;65.26
41140;BME280;26881;48.784;9.192;2023-03-14T09:29:04;96710.78;;;12.28;66.55
41140;BME280;26881;48.784;9.192;2023-03-14T09:34:26;96720.97;;;12.31;66.34
41140;BME280;26881;48.784;9.192;2023-03-14T09:39:48;96707.94;;;12.39;66.10
41140;BME280;26881;48.784;9.192;2023-03-14T09:45:18;96729.16;;;12.46;65.88
41140;BME280;26881;48.784;9.192;2023-03-14T09:50:48;96733.22;;;12.40;66.00
41140;BME280;26881;48.784;9.192;2023-03-14T09:56:21;96735.22;;;12.47;65.62
41140;BME280;26881;48.784;9.192;2023-03-14T10:01:44;96715.25;;;12.46;63.51
41140;BME280;26881;48.784;9.192;2023-03-14T10:07:11;96715.38;;;12.44;63.87
41140;BME280;26881;48.784;9.192;2023-03-14T10:12:37;96706.00;;;12.41;64.18
41140;BME280;26881;48.784;9.192;2023-03-14T10:18:02;96700.91;;;12.40;63.33
41140;BME280;26881;48.784;9.192;2023-03-14T10:23:27;96698.50;;;12.47;63.92
41140;BME280;26881;48.784;9.192;2023-03-14T10:28:52;96697.84;;;12.62;63.29
41140;BME280;26881;48.784;9.192;2023-03-14T10:34:22;96688.72;;;12.67;62.95
41140;BME280;26881;48.784;9.192;2023-03-14T10:39:48;96680.41;;;12.71;61.97
41140;BME280;26881;48.784;9.192;2023-03-14T10:51:41;96690.00;;;12.80;61.65
41140;BME280;26881;48.784;9.192;2023-03-14T10:56:37;96707.16;;;12.75;62.02
41140;BME280;26881;48.784;9.192;2023-03-14T11:02:10;96706.25;;;12.66;62.28
41140;BME280;26881;48.784;9.192;2023-03-14T11:07:43;96723.13;;;12.63;63.32
41140;BME280;26881;48.784;9.192;2023-03-14T11:30:42;96750.50;;;12.33;70.87
41140;BME280;26881;48.784;9.192;2023-03-14T11:35:52;96744.47;;;12.23;73.74
41140;BME280;26881;48.784;9.192;2023-03-14T11:46:50;96757.56;;;12.23;71.68
41140;BME280;26881;48.784;9.192;2023-03-14T11:52:35;96769.47;;;12.17;72.44
41140;BME280;26881;48.784;9.192;2023-03-14T11:58:26;96779.31;;;12.06;75.86
41140;BME280;26881;48.784;9.192;2023-03-14T12:03:57;96796.00;;;12.05;76.34
41140;BME280;26881;48.784;9.192;2023-03-14T12:09:21;96803.00;;;12.14;74.52
41140;BME280;26881;48.784;9.192;2023-03-14T12:14:45;96813.09;;;12.09;75.03
41140;BME280;26881;48.784;9.192;2023-03-14T12:25:36;96853.91;;;12.11;73.46
41140;BME280;26881;48.784;9.192;2023-03-14T12:48:30;97010.44;;;12.29;57.98
41140;BME280;26881;48.784;9.192;2023-03-14T12:54:13;96974.44;;;12.01;54.40
41140;BME280;26881;48.784;9.192;2023-03-14T13:00:02;97008.09;;;12.16;53.65
41140;BME280;26881;48.784;9.192;2023-03-14T13:05:54;97027.56;;;11.94;53.50
41140;BME280;26881;48.784;9.192;2023-03-14T13:11:19;97071.22;;;11.93;52.28
41140;BME280;26881;48.784;9.192;2023-03-14T13:16:41;97075.88;;;11.70;51.99
41140;BME280;26881;48.784;9.192;2023-03-14T13:22:12;97094.88;;;11.72;51.59
41140;BME280;26881;48.784;9.192;2023-03-14T13:27:37;97116.34;;;11.56;50.76
41140;BME280;26881;48.784;9.192;2023-03-14T13:33:03;97154.13;;;11.64;52.22
41140;BME280;26881;48.784;9.192;2023-03-14T13:38:27;97201.09;;;11.55;50.39
41140;BME280;26881;48.784;9.192;2023-03-14T13:43:50;97177.72;;;11.33;49.25
41140;BME280;26881;48.784;9.192;2023-03-14T13:49:22;97197.41;;;11.37;49.35
41140;BME280;26881;48.784;9.192;2023-03-14T13:54:45;97223.03;;;11.12;47.35
41140;BME280;26881;48.784;9.192;2023-03-14T14:00:16;97244.91;;;11.11;45.99
41140;BME280;26881;48.784;9.192;2023-03-14T14:05:38;97243.03;;;11.02;45.27
41140;BME280;26881;48.784;9.192;2023-03-14T14:11:03;97272.81;;;10.90;45.43
41140;BME280;26881;48.784;9.192;2023-03-14T14:16:27;97287.97;;;10.75;47.48
41140;BME280;26881;48.784;9.192;2023-03-14T14:21:50;97314.22;;;10.85;44.50
41140;BME280;26881;48.784;9.192;2023-03-14T14:27:32;97304.13;;;10.80;44.18
41140;BME280;26881;48.784;9.192;2023-03-14T14:33:20;97342.03;;;10.74;42.82
41140;BME280;26881;48.784;9.192;2023-03-14T14:38:42;97331.59;;;10.74;44.96
41140;BME280;26881;48.784;9.192;2023-03-14T14:44:04;97342.19;;;10.73;42.61
41140;BME280;26881;48.784;9.192;2023-03-14T14:49:31;97356.81;;;10.75;45.59
41140;BME280;26881;48.784;9.192;2023-03-14T14:55:00;97373.09;;;10.57;43.66
41140;BME280;26881;48.784;9.192;2023-03-14T15:00:26;97378.22;;;10.47;45.13
41140;BME280;26881;48.784;9.192;2023-03-14T15:05:49;97375.25;;;10.51;45.03
41140;BME280;26881;48.784;9.192;2023-03-14T15:11:17;97390.31;;;10.37;43.96
41140;BME280;26881;48.784;9.192;2023-03-14T15:16:40;97395.91;;;10.54;45.51
41140;BME280;26881;48.784;9.192;2023-03-14T15:22:02;97390.56;;;10.67;46.62
41140;BME280;26881;48.784;9.192;2023-03-14T15:27:24;97396.69;;;11.00;45.04
41140;BME280;26881;48.784;9.192;2023-03-14T15:32:47;97406.13;;;10.91;44.92
41140;BME280;26881;48.784;9.192;2023-03-14T15:38:13;97409.81;;;10.89;44.75
41140;BME280;26881;48.784;9.192;2023-03-14T15:43:35;97411.81;;;10.85;44.15
41140;BME280;26881;48.784;9.192;2023-03-14T15:48:57;97430.75;;;10.66;44.80
41140;BME280;26881;48.784;9.192;2023-03-14T15:54:19;97439.31;;;10.68;45.57
41140;BME280;26881;48.784;9.192;2023-03-14T15:59:41;97439.06;;;10.71;45.34
41140;BME280;26881;48.784;9.192;2023-03-14T16:05:03;97451.16;;;10.84;45.19
41140;BME280;26881;48.784;9.192;2023-03-14T16:10:24;97469.97;;;10.78;45.08
41140;BME280;26881;48.784;9.192;2023-03-14T16:15:54;97473.06;;;10.71;45.59
41140;BME280;26881;48.784;9.192;2023-03-14T16:21:17;97470.06;;;10.65;46.26
41140;BME280;26881;48.784;9.192;2023-03-14T16:26:40;97472.09;;;10.61;46.83
41140;BME280;26881;48.784;9.192;2023-03-14T16:32:02;97477.06;;;10.53;46.15
41140;BME280;26881;48.784;9.192;2023-03-14T16:37:24;97493.94;;;10.38;47.64
41140;BME280;26881;48.784;9.192;2023-03-14T16:42:47;97493.81;;;10.50;47.69
41140;BME280;26881;48.784;9.192;2023-03-14T16:48:41;97497.50;;;10.48;47.05
41140;BME280;26881;48.784;9.192;2023-03-14T16:54:03;97496.56;;;10.49;47.47
41140;BME280;26881;48.784;9.192;2023-03-14T16:59:25;97509.47;;;10.39;47.76
41140;BME280;26881;48.784;9.192;2023-03-14T17:04:49;97526.97;;;10.39;47.41
41140;BME280;26881;48.784;9.192;2023-03-14T17:10:11;97534.66;;;10.29;47.60
41140;BME280;26881;48.784;9.192;2023-03-14T17:15:33;97547.78;;;10.27;47.76
41140;BME280;26881;48.784;9.192;2023-03-14T17:20:55;97558.94;;;10.18;48.64
41140;BME280;26881;48.784;9.192;2023-03-14T17:26:17;97582.69;;;10.15;48.42
41140;BME280;26881;48.784;9.192;2023-03-14T17:31:39;97627.44;;;10.10;52.92
41140;BME280;26881;48.784;9.192;2023-03-14T17:37:01;97637.94;;;9.98;58.16
41140;BME280;26881;48.784;9.192;2023-03-14T17:42:23;97630.50;;;9.67;60.13
41140;BME280;26881;48.784;9.192;2023-03-14T17:47:45;97630.19;;;9.59;61.76
41140;BME280;26881;48.784;9.192;2023-03-14T17:53:07;97631.97;;;9.46;63.66
41140;BME280;26881;48.784;9.192;2023-03-14T17:58:30;97649.66;;;9.42;63.93
41140;BME280;26881;48.784;9.192;2023-03-14T18:03:54;97681.25;;;9.25;63.29
41140;BME280;26881;48.784;9.192;2023-03-14T18:09:17;97709.53;;;9.44;63.10
41140;BME280;26881;48.784;9.192;2023-03-14T18:14:39;97743.66;;;9.15;63.32
41140;BME280;26881;48.784;9.192;2023-03-14T18:20:05;97701.63;;;9.07;69.31
41140;BME280;26881;48.784;9.192;2023-03-14T18:25:33;97713.56;;;8.84;71.12
41140;BME280;26881;48.784;9.192;2023-03-14T18:31:05;97716.44;;;8.67;72.38
41140;BME280;26881;48.784;9.192;2023-03-14T18:36:27;97717.63;;;8.48;72.39
41140;BME280;26881;48.784;9.192;2023-03-14T18:41:49;97719.94;;;8.38;72.03
41140;BME280;26881;48.784;9.192;2023-03-14T18:47:11;97725.09;;;8.40;72.31
41140;BME280;26881;48.784;9.192;2023-03-14T18:52:33;97729.53;;;8.52;69.67
41140;BME280;26881;48.784;9.192;2023-03-14T18:57:55;97728.56;;;8.80;67.75
41140;BME280;26881;48.784;9.192;2023-03-14T19:03:17;97741.16;;;8.74;66.89
41140;BME280;26881;48.784;9.192;2023-03-14T19:08:40;97749.47;;;8.66;65.81
41140;BME280;26881;48.784;9.192;2023-03-14T19:14:02;97775.47;;;8.68;66.17
41140;BME280;26881;48.784;9.192;2023-03-14T19:19:24;97779.44;;;8.73;64.08
41140;BME280;26881;48.784;9.192;2023-03-14T19:24:46;97785.69;;;8.71;63.40
41140;BME280;26881;48.784;9.192;2023-03-14T19:30:08;97799.97;;;8.65;63.14
41140;BME280;26881;48.784;9.192;2023-03-14T19:35:31;97805.59;;;8.72;62.80
41140;BME280;26881;48.784;9.192;2023-03-14T19:40:57;97817.56;;;8.61;63.59
41140;BME280;26881;48.784;9.192;2023-03-14T19:46:20;97823.44;;;8.51;64.72
41140;BME280;26881;48.784;9.192;2023-03-14T19:51:42;97818.03;;;8.39;64.18
41140;BME280;26881;48.784;9.192;2023-03-14T19:57:04;97839.06;;;8.36;63.92
41140;BME280;26881;48.784;9.192;2023-03-14T20:02:26;97839.34;;;8.32;64.44
41140;BME280;26881;48.784;9.192;2023-03-14T20:07:50;97846.13;;;8.20;65.29
41140;BME280;26881;48.784;9.192;2023-03-14T20:13:12;97853.13;;;8.19;65.78
41140;BME280;26881;48.784;9.192;2023-03-14T20:18:42;97846.13;;;8.20;65.76
41140;BME280;26881;48.784;9.192;2023-03-14T20:24:04;97856.47;;;8.07;66.26
41140;BME280;26881;48.784;9.192;2023-03-14T20:29:27;97846.41;;;8.15;66.24
41140;BME280;26881;48.784;9.192;2023-03-14T20:34:48;97861.13;;;8.16;66.71
41140;BME280;26881;48.784;9.192;2023-03-14T20:40:11;97865.09;;;8.36;65.29
41140;BME280;26881;48.784;9.192;2023-03-14T20:45:34;97862.22;;;8.27;65.13
41140;BME280;26881;48.784;9.192;2023-03-14T20:50:56;97887.94;;;8.33;65.23
41140;BME280;26881;48.784;9.192;2023-03-14T20:56:18;97883.00;;;8.28;65.69
41140;BME280;26881;48.784;9.192;2023-03-14T21:01:40;97876.47;;;8.21;64.01
41140;BME280;26881;48.784;9.192;2023-03-14T21:07:02;97878.25;;;8.20;65.87
41140;BME280;26881;48.784;9.192;2023-03-14T21:12:24;97883.81;;;8.29;64.64
41140;BME280;26881;48.784;9.192;2023-03-14T21:17:46;97880.84;;;8.35;64.08
41140;BME280;26881;48.784;9.192;2023-03-14T21:23:08;97893.69;;;8.38;63.80
41140;BME280;26881;48.784;9.192;2023-03-14T21:28:32;97893.69;;;8.38;63.94
41140;BME280;26881;48.784;9.192;2023-03-14T21:33:54;97886.44;;;8.57;64.87
41140;BME280;26881;48.784;9.192;2023-03-14T21:39:16;97902.63;;;8.34;65.74
41140;BME280;26881;48.784;9.192;2023-03-14T21:44:37;97903.09;;;8.26;66.37
41140;BME280;26881;48.784;9.192;2023-03-14T21:49:59;97906.31;;;8.30;68.16
41140;BME280;26881;48.784;9.192;2023-03-14T21:55:23;97916.38;;;8.21;69.33
41140;BME280;26881;48.784;9.192;2023-03-14T22:00:46;97913.91;;;7.90;70.93
41140;BME280;26881;48.784;9.192;2023-03-14T22:06:09;97911.69;;;7.84;70.42
41140;BME280;26881;48.784;9.192;2023-03-14T22:11:31;97914.28;;;7.84;71.54
41140;BME280;26881;48.784;9.192;2023-03-14T22:16:53;97929.28;;;7.94;70.25
41140;BME280;26881;48.784;9.192;2023-03-14T22:22:15;97923.19;;;7.79;69.41
41140;BME280;26881;48.784;9.192;2023-03-14T22:27:37;97931.19;;;7.76;69.43
41140;BME280;26881;48.784;9.192;2023-03-14T22:32:59;98023.25;;;7.44;70.28
41140;BME280;26881;48.784;9.192;2023-03-14T22:38:21;98042.72;;;7.36;70.72
41140;BME280;26881;48.784;9.192;2023-03-14T22:43:43;98052.69;;;6.28;72.12
41140;BME280;26881;48.784;9.192;2023-03-14T22:49:04;98067.88;;;6.36;73.64
41140;BME280;26881;48.784;9.192;2023-03-14T22:54:26;98080.53;;;6.07;73.29
41140;BME280;26881;48.784;9.192;2023-03-14T22:59:48;98107.72;;;6.00;72.92
41140;BME280;26881;48.784;9.192;2023-03-14T23:05:10;98119.53;;;5.69;72.86
41140;BME280;26881;48.784;9.192;2023-03-14T23:10:31;98135.63;;;5.38;73.45
41140;BME280;26881;48.784;9.192;2023-03-14T23:15:53;98148.06;;;5.51;75.96
41140;BME280;26881;48.784;9.192;2023-03-14T23:21:17;98163.75;;;5.47;74.31
41140;BME280;26881;48.784;9.192;2023-03-14T23:26:39;98183.69;;;5.26;74.40
41140;BME280;26881;48.784;9.192;2023-03-14T23:32:01;98198.41;;;5.26;76.69
41140;BME280;26881;48.784;9.192;2023-03-14T23:37:23;98195.91;;;5.24;75.44
41140;BME280;26881;48.784;9.192;2023-03-14T23:42:47;98197.75;;;5.41;76.35
41140;BME280;26881;48.784;9.192;2023-03-14T23:48:09;98206.81;;;5.31;74.95
41140;BME280;26881;48.784;9.192;2023-03-14T23:53:31;98205.00;;;5.33;75.80
41140;BME280;26881;48.784;9.192;2023-03-14T23:58:53;98213.00;;;5.08;77.03
